Time;durP1;ratioP1;P1;durP2;ratioP2;P2;SDS_P1;SDS_P2;PMS_P1;PMS_P2;Temp;Humidity;BMP_temperature;BMP_pressure;BME280_temperature;BME280_humidity;BME280_pressure;Samples;Min_cycle;Max_cycle;Signal;HPM_P1;HPM_P2
2021/07/08 00:14:21;;;;;;;2.33;1.90;;;17.10;99.90;;;;;;5034707;28;20639;-94
2021/07/08 00:32:25;;;;;;;3.67;1.80;;;17.00;99.90;;;;;;5010093;28;20640;-95
2021/07/08 00:34:52;;;;;;;2.30;1.60;;;17.00;99.90;;;;;;4996137;28;20659;-94
2021/07/08 00:37:22;;;;;;;5.37;2.17;;;17.10;99.90;;;;;;4988979;28;20764;-94
2021/07/08 00:39:49;;;;;;;3.73;2.30;;;17.10;99.90;;;;;;4993793;28;20720;-93
2021/07/08 00:42:16;;;;;;;4.80;1.97;;;16.90;99.90;;;;;;4975154;28;20728;-94
2021/07/08 00:44:43;;;;;;;2.13;1.90;;;17.00;99.90;;;;;;4968127;28;20629;-93
2021/07/08 00:47:11;;;;;;;5.67;1.97;;;16.90;99.90;;;;;;4973857;28;21286;-96
2021/07/08 00:49:40;;;;;;;1.63;1.53;;;17.00;99.90;;;;;;4973671;28;20662;-95
2021/07/08 00:52:07;;;;;;;3.43;1.80;;;17.10;99.90;;;;;;4968883;28;21226;-94
2021/07/08 00:54:36;;;;;;;3.47;2.20;;;17.10;99.90;;;;;;4971612;28;21079;-94
2021/07/08 00:57:09;;;;;;;6.90;2.30;;;17.10;99.90;;;;;;4973363;28;21165;-93
2021/07/08 00:59:43;;;;;;;5.67;1.87;;;17.10;99.90;;;;;;4968847;28;20660;-93
2021/07/08 01:02:11;;;;;;;2.90;2.40;;;17.10;99.90;;;;;;4965612;28;20664;-92
2021/07/08 01:04:41;;;;;;;2.80;1.90;;;17.10;99.90;;;;;;4970401;28;20668;-94
2021/07/08 01:07:08;;;;;;;4.90;2.20;;;17.10;99.90;;;;;;4970887;28;21192;-93
2021/07/08 01:09:35;;;;;;;3.90;2.20;;;17.00;99.90;;;;;;4974188;28;20661;-93
2021/07/08 01:12:02;;;;;;;4.03;1.80;;;17.00;99.90;;;;;;4992668;28;20646;-93
2021/07/08 01:14:38;;;;;;;5.13;1.90;;;16.90;99.90;;;;;;4991254;28;20714;-94
2021/07/08 01:17:06;;;;;;;5.10;2.33;;;16.80;99.90;;;;;;4972760;28;20665;-94
2021/07/08 01:19:35;;;;;;;1.90;1.80;;;16.80;99.90;;;;;;4977339;28;20749;-93
2021/07/08 01:22:03;;;;;;;2.10;1.60;;;16.80;99.90;;;;;;4977302;28;20669;-93
2021/07/08 01:24:31;;;;;;;1.73;1.63;;;16.80;99.90;;;;;;4971582;28;20729;-92
2021/07/08 01:27:01;;;;;;;3.50;1.90;;;16.80;99.90;;;;;;4970752;28;20617;-93
2021/07/08 01:29:29;;;;;;;1.83;1.50;;;16.80;99.90;;;;;;4971425;28;21216;-93
2021/07/08 01:31:57;;;;;;;1.50;1.40;;;16.80;99.90;;;;;;4975094;28;20699;-92
2021/07/08 01:34:24;;;;;;;4.67;1.70;;;16.90;99.90;;;;;;4973040;28;20645;-93
2021/07/08 01:36:53;;;;;;;2.80;1.50;;;17.00;99.90;;;;;;4973450;28;20638;-93
2021/07/08 01:39:21;;;;;;;3.93;1.70;;;17.00;99.90;;;;;;4971858;28;20680;-93
2021/07/08 01:41:48;;;;;;;1.97;1.87;;;17.10;99.90;;;;;;4975439;28;20668;-92
2021/07/08 01:44:16;;;;;;;3.60;1.80;;;17.20;99.90;;;;;;4967577;28;20729;-93
2021/07/08 01:46:43;;;;;;;1.60;1.50;;;17.20;99.90;;;;;;4961693;28;21206;-93
2021/07/08 01:49:11;;;;;;;2.03;1.83;;;17.20;99.90;;;;;;4964398;28;21275;-94
2021/07/08 01:51:38;;;;;;;2.30;1.80;;;17.10;99.90;;;;;;4968101;28;20735;-93
2021/07/08 01:54:09;;;;;;;2.37;2.17;;;17.10;99.90;;;;;;4974898;28;20668;-93
2021/07/08 01:56:46;;;;;;;3.10;2.60;;;17.00;99.90;;;;;;4974595;28;20641;-93
2021/07/08 01:59:13;;;;;;;1.97;1.77;;;17.00;99.90;;;;;;4971643;28;20630;-93
2021/07/08 02:01:40;;;;;;;2.50;1.90;;;17.00;99.90;;;;;;4973245;28;21047;-95
2021/07/08 02:04:07;;;;;;;3.70;2.40;;;17.00;99.90;;;;;;4968969;28;21150;-95
2021/07/08 02:06:35;;;;;;;3.10;1.97;;;16.90;99.90;;;;;;4973087;28;20638;-94
2021/07/08 02:09:05;;;;;;;4.47;1.80;;;16.80;99.90;;;;;;4970833;28;20661;-94
2021/07/08 02:11:33;;;;;;;3.90;1.77;;;16.80;99.90;;;;;;4970275;28;20669;-93
2021/07/08 02:14:01;;;;;;;2.80;2.60;;;16.80;99.90;;;;;;4972335;28;21247;-93
2021/07/08 02:16:28;;;;;;;3.10;2.80;;;16.80;99.90;;;;;;4971648;28;20737;-93
2021/07/08 02:18:55;;;;;;;3.13;2.87;;;16.80;99.90;;;;;;4972471;28;20732;-93
2021/07/08 02:21:23;;;;;;;4.90;4.50;;;16.90;99.90;;;;;;4973075;28;20658;-94
2021/07/08 02:23:54;;;;;;;4.87;4.40;;;17.00;99.90;;;;;;4974766;28;21247;-94
2021/07/08 02:26:23;;;;;;;5.97;4.40;;;16.90;99.90;;;;;;4971271;28;21511;-94
2021/07/08 02:28:53;;;;;;;5.33;4.80;;;16.90;99.90;;;;;;4973367;28;20593;-94
2021/07/08 02:31:22;;;;;;;6.13;3.43;;;16.80;99.90;;;;;;4972566;28;20765;-94
2021/07/08 02:33:49;;;;;;;5.90;3.73;;;16.80;99.90;;;;;;4974924;28;20770;-94
2021/07/08 02:36:20;;;;;;;4.80;4.40;;;16.80;99.90;;;;;;4973563;28;20676;-94
2021/07/08 02:38:47;;;;;;;6.07;4.63;;;16.90;99.90;;;;;;4974196;28;20670;-93
2021/07/08 02:41:14;;;;;;;6.43;5.87;;;16.90;99.90;;;;;;4978830;28;20668;-93
2021/07/08 02:46:58;;;;;;;6.27;5.73;;;17.10;99.90;;;;;;4994580;28;20621;-95
2021/07/08 02:49:46;;;;;;;6.47;5.67;;;17.00;99.90;;;;;;4979978;28;20673;-94
2021/07/08 02:52:15;;;;;;;6.30;5.80;;;17.00;99.90;;;;;;4979669;28;21288;-94
2021/07/08 02:54:42;;;;;;;6.50;5.93;;;17.00;99.90;;;;;;4975995;28;20628;-93
2021/07/08 02:57:09;;;;;;;6.47;5.43;;;16.90;99.90;;;;;;4979519;28;21111;-93
2021/07/08 02:59:36;;;;;;;7.27;6.63;;;16.90;99.90;;;;;;4979954;28;20630;-93
2021/07/08 03:02:08;;;;;;;6.10;5.07;;;16.80;99.90;;;;;;4975202;28;20677;-93
2021/07/08 03:04:37;;;;;;;5.47;4.53;;;16.80;99.90;;;;;;4973446;28;20642;-94
2021/07/08 03:07:05;;;;;;;5.40;5.00;;;16.70;99.90;;;;;;4978463;28;20696;-93
2021/07/08 03:09:33;;;;;;;5.07;4.67;;;16.70;99.90;;;;;;4982165;28;20697;-94
2021/07/08 03:12:24;;;;;;;5.70;5.30;;;16.70;99.90;;;;;;4982048;28;20791;-95
2021/07/08 03:14:51;;;;;;;4.90;4.50;;;16.70;99.90;;;;;;4987361;28;20610;-94
2021/07/08 03:17:22;;;;;;;6.87;4.20;;;16.70;99.90;;;;;;4991125;28;20621;-94
2021/07/08 03:19:49;;;;;;;4.93;4.53;;;16.70;99.90;;;;;;4984446;28;20641;-94
2021/07/08 03:22:16;;;;;;;4.50;4.10;;;16.70;99.90;;;;;;4975528;28;20693;-95
2021/07/08 03:24:43;;;;;;;4.60;4.30;;;16.70;99.90;;;;;;4971161;28;21211;-93
2021/07/08 03:27:11;;;;;;;4.77;3.83;;;16.70;99.90;;;;;;4966716;28;20688;-92
2021/07/08 03:29:40;;;;;;;5.43;3.90;;;16.70;99.90;;;;;;4974603;28;20769;-92
2021/07/08 03:32:07;;;;;;;5.17;4.20;;;16.70;99.90;;;;;;4973020;28;20689;-92
2021/07/08 03:34:36;;;;;;;6.77;4.40;;;16.70;99.90;;;;;;4976036;28;20735;-92
2021/07/08 03:37:03;;;;;;;10.80;5.77;;;16.70;99.90;;;;;;4971985;28;20644;-93
2021/07/08 03:39:30;;;;;;;4.60;4.20;;;16.70;99.90;;;;;;4970786;28;20635;-94
2021/07/08 03:41:57;;;;;;;4.07;3.23;;;16.70;99.90;;;;;;4976264;28;20679;-95
2021/07/08 03:44:24;;;;;;;4.70;4.30;;;16.70;99.90;;;;;;4976210;28;20737;-94
2021/07/08 03:46:54;;;;;;;5.10;3.47;;;16.70;99.90;;;;;;4975168;28;20634;-94
2021/07/08 03:49:24;;;;;;;4.40;3.13;;;16.60;99.90;;;;;;4970992;28;20668;-94
2021/07/08 03:51:53;;;;;;;3.93;3.63;;;16.60;99.90;;;;;;4977812;28;20676;-93
2021/07/08 03:54:21;;;;;;;4.80;3.60;;;16.60;99.90;;;;;;4978456;28;20652;-94
2021/07/08 03:56:48;;;;;;;3.60;3.07;;;16.60;99.90;;;;;;4979762;28;20657;-92
2021/07/08 03:59:15;;;;;;;3.47;2.63;;;16.60;99.90;;;;;;4969070;28;21072;-95
2021/07/08 04:01:42;;;;;;;6.20;3.43;;;16.50;99.90;;;;;;4973234;28;20686;-96
2021/07/08 04:04:09;;;;;;;3.20;2.73;;;16.60;99.90;;;;;;4976125;28;20645;-95
2021/07/08 04:06:37;;;;;;;5.63;4.20;;;16.50;99.90;;;;;;4966706;28;20634;-95
2021/07/08 04:09:05;;;;;;;4.67;4.27;;;16.60;99.90;;;;;;4973545;28;20637;-94
2021/07/08 04:11:32;;;;;;;5.07;4.57;;;16.60;99.90;;;;;;4974211;28;21502;-94
2021/07/08 04:13:59;;;;;;;5.60;4.07;;;16.60;99.90;;;;;;4973879;28;20721;-95
2021/07/08 04:16:29;;;;;;;4.70;4.30;;;16.60;99.90;;;;;;4972314;28;20729;-96
2021/07/08 04:18:55;;;;;;;5.30;3.50;;;16.60;99.90;;;;;;4974958;28;20661;-96
2021/07/08 04:21:26;;;;;;;3.97;3.57;;;16.60;99.90;;;;;;4973005;28;20716;-93
2021/07/08 04:23:54;;;;;;;7.73;3.93;;;16.60;99.90;;;;;;4976135;28;20622;-93
2021/07/08 04:26:22;;;;;;;5.43;3.10;;;16.60;99.90;;;;;;4969554;28;20629;-95
2021/07/08 04:28:49;;;;;;;5.77;4.37;;;16.60;99.90;;;;;;4966971;28;20692;-94
2021/07/08 04:31:17;;;;;;;5.00;3.77;;;16.60;99.90;;;;;;4973304;28;21632;-93
2021/07/08 04:33:46;;;;;;;4.23;3.63;;;16.60;99.90;;;;;;4972452;28;21192;-94
2021/07/08 04:36:14;;;;;;;6.13;3.90;;;16.60;99.90;;;;;;4972178;28;20637;-94
2021/07/08 04:38:42;;;;;;;4.40;4.00;;;16.60;99.90;;;;;;4971301;28;20637;-91
2021/07/08 04:41:10;;;;;;;5.83;3.70;;;16.60;99.90;;;;;;4971512;28;20657;-93
2021/07/08 04:43:39;;;;;;;4.70;4.37;;;16.60;99.90;;;;;;4971441;28;20672;-94
2021/07/08 04:46:05;;;;;;;4.93;3.70;;;16.60;99.90;;;;;;4967876;28;20730;-95
2021/07/08 04:48:32;;;;;;;5.10;4.70;;;16.70;99.90;;;;;;4968698;28;20642;-92
2021/07/08 04:51:02;;;;;;;7.13;5.70;;;16.60;99.90;;;;;;4965006;28;20697;-93
2021/07/08 04:53:30;;;;;;;6.83;5.90;;;16.60;99.90;;;;;;4968960;28;20662;-95
2021/07/08 04:55:57;;;;;;;6.43;5.93;;;16.60;99.90;;;;;;4972786;28;20629;-94
2021/07/08 04:58:35;;;;;;;6.53;6.03;;;16.70;99.90;;;;;;4973511;28;20764;-96
2021/07/08 05:01:04;;;;;;;5.80;5.30;;;16.80;99.90;;;;;;4978114;28;20720;-95
2021/07/08 05:03:50;;;;;;;6.87;6.27;;;16.90;99.90;;;;;;4978036;28;20665;-95
2021/07/08 05:06:18;;;;;;;6.90;6.30;;;16.90;99.90;;;;;;4977833;28;21026;-95
2021/07/08 05:08:46;;;;;;;6.90;6.40;;;16.90;99.90;;;;;;4970304;28;20656;-95
2021/07/08 05:11:14;;;;;;;7.60;6.53;;;16.90;99.90;;;;;;4976428;28;20680;-95
2021/07/08 05:13:42;;;;;;;6.70;5.80;;;17.00;99.90;;;;;;4971191;28;21392;-93
2021/07/08 05:16:32;;;;;;;6.73;6.20;;;17.00;99.90;;;;;;4978107;28;20630;-94
2021/07/08 05:18:59;;;;;;;6.03;5.30;;;17.10;99.90;;;;;;4988201;28;20640;-93
2021/07/08 05:21:30;;;;;;;6.40;5.90;;;17.20;99.90;;;;;;4989563;28;20730;-94
2021/07/08 05:24:00;;;;;;;6.97;6.27;;;17.20;99.90;;;;;;4978227;28;20725;-95
2021/07/08 05:26:27;;;;;;;6.03;5.53;;;17.20;99.90;;;;;;4972597;28;20666;-94
2021/07/08 05:28:54;;;;;;;5.57;5.17;;;17.20;99.90;;;;;;4976341;28;20634;-94
2021/07/08 05:31:21;;;;;;;6.30;5.80;;;17.20;99.90;;;;;;4972645;28;20669;-94
2021/07/08 05:33:54;;;;;;;6.63;5.93;;;17.20;99.90;;;;;;4973988;28;20680;-94
2021/07/08 05:36:21;;;;;;;8.17;6.03;;;17.20;99.90;;;;;;4975560;28;20744;-94
2021/07/08 05:38:48;;;;;;;6.47;5.57;;;17.20;99.90;;;;;;4974883;28;21180;-94
2021/07/08 05:41:17;;;;;;;7.50;5.83;;;17.10;99.90;;;;;;4974399;28;20639;-93
2021/07/08 05:43:44;;;;;;;7.73;6.33;;;17.30;99.90;;;;;;4976192;28;20751;-94
2021/07/08 05:46:15;;;;;;;12.20;6.40;;;17.30;99.90;;;;;;4972954;28;20648;-95
2021/07/08 05:48:43;;;;;;;6.80;6.10;;;17.30;99.90;;;;;;4975899;28;20578;-94
2021/07/08 05:51:12;;;;;;;6.77;6.20;;;17.30;99.90;;;;;;4976599;28;20744;-94
2021/07/08 05:53:40;;;;;;;8.63;5.77;;;17.30;99.90;;;;;;4977635;28;20653;-94
2021/07/08 05:56:08;;;;;;;6.53;5.87;;;17.30;99.90;;;;;;4975807;28;20689;-94
2021/07/08 05:58:35;;;;;;;7.23;6.73;;;17.40;99.90;;;;;;4975836;28;20637;-95
2021/07/08 06:01:10;;;;;;;5.77;5.03;;;17.40;99.90;;;;;;4985349;28;20651;-93
2021/07/08 06:03:37;;;;;;;6.23;5.63;;;17.40;99.90;;;;;;4992682;28;20644;-93
2021/07/08 06:06:04;;;;;;;5.77;5.17;;;17.40;99.90;;;;;;4990134;28;20610;-95
2021/07/08 06:09:03;;;;;;;8.00;5.23;;;17.50;99.90;;;;;;4989101;28;20655;-94
2021/07/08 06:11:46;;;;;;;6.20;5.60;;;17.50;99.90;;;;;;4998001;28;20637;-95
2021/07/08 06:14:13;;;;;;;6.00;5.50;;;17.50;99.90;;;;;;4989992;28;21271;-93
2021/07/08 06:16:45;;;;;;;6.20;5.67;;;17.60;99.90;;;;;;4983269;28;20649;-94
2021/07/08 06:19:15;;;;;;;7.20;5.00;;;17.70;99.90;;;;;;4990287;28;20653;-94
2021/07/08 06:21:45;;;;;;;6.33;5.73;;;17.70;99.90;;;;;;4991053;28;20625;-94
2021/07/08 06:24:12;;;;;;;14.90;6.73;;;17.70;99.90;;;;;;4979736;28;20665;-95
2021/07/08 06:26:39;;;;;;;18.53;6.93;;;17.70;99.90;;;;;;4974575;28;21263;-95
2021/07/08 06:29:12;;;;;;;9.90;4.93;;;17.70;99.90;;;;;;4972492;28;20696;-94
2021/07/08 06:31:39;;;;;;;9.23;4.83;;;17.80;99.90;;;;;;4965252;28;21104;-95
2021/07/08 06:34:07;;;;;;;5.30;4.53;;;17.90;99.90;;;;;;4967091;28;20659;-93
2021/07/08 06:36:37;;;;;;;5.03;3.97;;;18.10;99.90;;;;;;4972356;28;20673;-94
2021/07/08 06:39:13;;;;;;;6.37;5.77;;;18.10;99.90;;;;;;4969960;28;20615;-93
2021/07/08 06:41:42;;;;;;;5.23;4.20;;;18.20;99.90;;;;;;4974796;28;20748;-93
2021/07/08 06:44:14;;;;;;;7.40;3.60;;;18.30;99.90;;;;;;4975443;28;20614;-93
2021/07/08 06:46:43;;;;;;;5.83;3.60;;;18.30;99.90;;;;;;4974631;28;20721;-94
2021/07/08 06:49:11;;;;;;;5.70;4.03;;;18.30;99.90;;;;;;4967298;28;20637;-93
2021/07/08 06:51:40;;;;;;;5.73;4.30;;;18.50;99.90;;;;;;4980932;28;20673;-92
2021/07/08 06:54:08;;;;;;;4.13;3.83;;;18.50;99.90;;;;;;4970506;28;20649;-94
2021/07/08 06:56:43;;;;;;;5.90;4.27;;;18.40;99.90;;;;;;4970684;28;20692;-93
2021/07/08 06:59:23;;;;;;;6.50;4.97;;;18.30;99.90;;;;;;4982684;28;20625;-93
2021/07/08 07:01:53;;;;;;;6.50;4.27;;;18.30;99.90;;;;;;4991076;28;20668;-94
2021/07/08 07:04:24;;;;;;;5.57;4.80;;;18.30;99.90;;;;;;4992547;28;20689;-94
2021/07/08 07:06:51;;;;;;;8.87;4.30;;;18.40;99.90;;;;;;4987482;28;21141;-95
2021/07/08 07:09:19;;;;;;;8.90;6.80;;;18.40;99.90;;;;;;4972873;28;20638;-95
2021/07/08 07:11:52;;;;;;;6.37;4.37;;;18.50;99.90;;;;;;4975011;28;20703;-94
2021/07/08 07:14:21;;;;;;;4.13;3.83;;;18.50;99.90;;;;;;4972804;28;20638;-93
2021/07/08 07:16:50;;;;;;;4.90;4.50;;;18.50;99.90;;;;;;4974120;28;20637;-93
2021/07/08 07:19:18;;;;;;;6.00;4.13;;;18.60;99.90;;;;;;4975588;28;20642;-93
2021/07/08 07:21:48;;;;;;;5.10;4.00;;;18.50;99.90;;;;;;4973733;28;20747;-95
2021/07/08 07:24:17;;;;;;;5.20;4.00;;;18.50;99.90;;;;;;4992169;28;20621;-95
2021/07/08 07:26:44;;;;;;;6.77;4.20;;;18.50;99.90;;;;;;4995191;28;20661;-94
2021/07/08 07:29:14;;;;;;;5.27;4.40;;;18.40;99.90;;;;;;4987112;28;20641;-94
2021/07/08 07:31:43;;;;;;;6.10;4.93;;;18.50;99.90;;;;;;4981670;28;20669;-94
2021/07/08 07:34:12;;;;;;;10.20;5.60;;;18.50;99.90;;;;;;4983667;28;20641;-93
2021/07/08 07:36:41;;;;;;;5.40;4.90;;;18.60;99.90;;;;;;4992816;28;20696;-93
2021/07/08 07:39:08;;;;;;;6.63;4.70;;;18.60;99.90;;;;;;4977951;28;20644;-95
2021/07/08 07:41:40;;;;;;;5.97;5.10;;;18.60;99.90;;;;;;4978865;28;20664;-95
2021/07/08 07:44:08;;;;;;;9.60;5.27;;;18.70;99.90;;;;;;4975841;28;20637;-94
2021/07/08 07:46:37;;;;;;;5.63;5.23;;;18.70;99.90;;;;;;4978763;28;20671;-93
2021/07/08 07:49:13;;;;;;;5.90;5.03;;;18.80;99.90;;;;;;4971684;28;20642;-94
2021/07/08 07:51:42;;;;;;;5.90;5.40;;;19.00;99.90;;;;;;4978220;28;20670;-93
2021/07/08 07:54:17;;;;;;;11.03;5.33;;;19.10;99.90;;;;;;4977534;28;20630;-95
2021/07/08 07:56:48;;;;;;;8.17;5.43;;;19.20;99.90;;;;;;4975990;28;20712;-94
2021/07/08 07:59:22;;;;;;;6.33;5.80;;;19.10;99.90;;;;;;4980912;28;20664;-94
2021/07/08 08:01:52;;;;;;;7.10;5.27;;;19.10;99.90;;;;;;4978467;28;20676;-95
2021/07/08 08:04:23;;;;;;;7.33;6.20;;;19.10;99.90;;;;;;4979759;28;20721;-95
2021/07/08 08:09:37;;;;;;;7.30;5.77;;;19.10;99.90;;;;;;4978295;28;20616;-96
2021/07/08 08:12:05;;;;;;;5.53;5.00;;;19.20;99.90;;;;;;4982846;28;20677;-94
2021/07/08 08:14:34;;;;;;;6.83;4.90;;;19.30;99.90;;;;;;4979857;28;20629;-95
2021/07/08 08:17:01;;;;;;;6.37;5.60;;;19.30;99.90;;;;;;4972037;28;20653;-94
2021/07/08 08:19:38;;;;;;;5.20;4.70;;;19.30;99.90;;;;;;4980057;28;20659;-95
2021/07/08 08:22:11;;;;;;;5.80;5.30;;;19.40;99.90;;;;;;4977542;28;20730;-94
2021/07/08 08:24:51;;;;;;;6.00;4.40;;;19.40;99.90;;;;;;4980195;28;20676;-94
2021/07/08 08:27:21;;;;;;;7.63;5.07;;;19.50;99.90;;;;;;4969538;28;20698;-94
2021/07/08 08:29:49;;;;;;;11.47;6.03;;;19.60;99.90;;;;;;4982294;28;20641;-94
2021/07/08 08:35:16;;;;;;;5.73;5.20;;;20.00;99.90;;;;;;4980077;28;20640;-95
2021/07/08 08:37:43;;;;;;;6.90;5.53;;;20.30;99.90;;;;;;4983878;28;20629;-94
2021/07/08 08:40:14;;;;;;;4.97;4.57;;;20.40;99.90;;;;;;4980662;28;20637;-94
2021/07/08 08:42:46;;;;;;;5.17;4.70;;;20.70;99.90;;;;;;4981469;28;20773;-94
2021/07/08 08:45:22;;;;;;;5.33;4.90;;;20.80;99.90;;;;;;4981751;28;20625;-95
2021/07/08 08:47:58;;;;;;;12.37;6.07;;;21.00;99.90;;;;;;4978649;28;20735;-95
2021/07/08 08:50:30;;;;;;;5.37;4.10;;;21.10;99.90;;;;;;4977223;28;20637;-95
2021/07/08 08:53:21;;;;;;;5.70;5.20;;;21.20;99.90;;;;;;4974001;28;20673;-95
2021/07/08 08:55:50;;;;;;;5.70;5.30;;;21.20;99.90;;;;;;4966308;28;20644;-95
2021/07/08 08:58:23;;;;;;;9.87;4.80;;;21.20;99.90;;;;;;4971879;28;20653;-95
2021/07/08 09:00:52;;;;;;;5.13;4.63;;;21.30;99.90;;;;;;4970006;28;20629;-95
2021/07/08 09:03:25;;;;;;;5.00;4.47;;;21.50;99.90;;;;;;4974427;28;20669;-94
2021/07/08 09:06:09;;;;;;;8.40;4.83;;;21.80;99.90;;;;;;4970061;28;20641;-95
2021/07/08 09:08:44;;;;;;;4.83;4.43;;;21.80;99.90;;;;;;4971685;28;20672;-94
2021/07/08 09:11:21;;;;;;;5.50;4.20;;;21.90;99.90;;;;;;4975226;28;20669;-94
2021/07/08 09:13:55;;;;;;;6.83;4.70;;;21.80;99.90;;;;;;4991138;28;20716;-96
2021/07/08 09:16:24;;;;;;;6.63;4.90;;;21.90;99.90;;;;;;4985581;28;20626;-95
2021/07/08 09:19:03;;;;;;;4.73;4.30;;;21.70;99.90;;;;;;4986297;28;20632;-95
2021/07/08 09:21:37;;;;;;;6.43;5.57;;;21.60;99.90;;;;;;4972712;28;20652;-95
2021/07/08 09:24:24;;;;;;;5.20;4.80;;;21.50;99.90;;;;;;4974898;28;20633;-93
2021/07/08 09:27:09;;;;;;;5.60;5.10;;;21.60;99.90;;;;;;4977974;28;20648;-94
2021/07/08 09:29:39;;;;;;;5.93;5.00;;;21.70;99.90;;;;;;4974691;28;20653;-94
2021/07/08 09:32:14;;;;;;;6.07;5.57;;;21.70;99.90;;;;;;4979891;28;20848;-94
2021/07/08 09:34:42;;;;;;;6.70;5.80;;;21.90;99.90;;;;;;4968949;28;20645;-94
2021/07/08 09:37:16;;;;;;;6.67;6.10;;;21.80;99.90;;;;;;4975484;28;21161;-95
2021/07/08 09:39:45;;;;;;;5.83;4.97;;;21.80;99.90;;;;;;4974469;28;20648;-95
2021/07/08 09:42:13;;;;;;;5.13;4.20;;;21.90;99.90;;;;;;4975832;28;20729;-96
2021/07/08 09:44:41;;;;;;;7.07;4.50;;;22.00;99.90;;;;;;4977125;28;21345;-95
2021/07/08 09:47:30;;;;;;;5.70;4.57;;;21.90;99.90;;;;;;4977580;28;20637;-96
2021/07/08 09:49:59;;;;;;;5.43;4.90;;;22.10;99.90;;;;;;4977018;28;20641;-94
2021/07/08 09:52:33;;;;;;;3.80;3.50;;;21.90;99.90;;;;;;4979720;28;20771;-96
2021/07/08 09:55:15;;;;;;;4.33;3.93;;;22.00;99.90;;;;;;4981773;28;20637;-94
2021/07/08 09:57:49;;;;;;;8.63;4.00;;;21.80;99.90;;;;;;4979258;28;20633;-94
2021/07/08 10:00:35;;;;;;;4.03;3.80;;;22.00;99.90;;;;;;4975872;28;21188;-94
2021/07/08 10:03:04;;;;;;;4.40;4.00;;;21.90;99.90;;;;;;4974451;28;20768;-95
2021/07/08 10:08:21;;;;;;;3.83;3.53;;;21.60;99.90;;;;;;4979933;28;20673;-95
2021/07/08 10:10:51;;;;;;;3.47;3.27;;;21.60;99.90;;;;;;4975401;28;20736;-95
2021/07/08 10:13:19;;;;;;;6.60;2.97;;;21.80;99.90;;;;;;4992890;28;20718;-95
2021/07/08 10:15:47;;;;;;;2.70;2.50;;;21.90;99.90;;;;;;4995546;28;20633;-95
2021/07/08 10:18:21;;;;;;;2.53;2.33;;;21.90;99.90;;;;;;4988003;28;20645;-94
2021/07/08 10:20:50;;;;;;;3.37;3.07;;;22.10;99.90;;;;;;4974971;28;20645;-95
2021/07/08 10:23:19;;;;;;;2.67;2.47;;;22.00;99.90;;;;;;4979918;28;20752;-95
2021/07/08 10:25:46;;;;;;;1.77;1.67;;;22.10;99.90;;;;;;4976777;28;20731;-94
2021/07/08 10:28:14;;;;;;;2.27;2.17;;;22.10;99.90;;;;;;4970486;28;20716;-94
2021/07/08 10:30:42;;;;;;;2.57;2.37;;;22.00;99.90;;;;;;4972466;28;20645;-94
2021/07/08 10:33:10;;;;;;;2.43;1.97;;;22.10;99.90;;;;;;4969664;28;21076;-94
2021/07/08 10:35:42;;;;;;;4.43;2.13;;;22.20;99.90;;;;;;4967894;28;20633;-95
2021/07/08 10:38:39;;;;;;;2.50;1.70;;;22.40;99.90;;;;;;4966775;28;20753;-95
2021/07/08 10:41:42;;;;;;;2.10;2.00;;;22.30;99.90;;;;;;4923761;28;20657;-95
2021/07/08 10:44:49;;;;;;;2.90;1.77;;;22.50;99.90;;;;;;4963605;28;20644;-94
2021/07/08 10:47:37;;;;;;;1.67;1.30;;;22.50;99.90;;;;;;4967261;28;20992;-94
2021/07/08 10:50:08;;;;;;;2.37;1.77;;;22.20;99.90;;;;;;4968651;28;20587;-94
2021/07/08 10:52:47;;;;;;;1.90;1.80;;;22.20;99.90;;;;;;4974302;28;20689;-94
2021/07/08 10:55:37;;;;;;;1.73;1.63;;;22.40;99.90;;;;;;4972347;28;21251;-94
2021/07/08 10:58:06;;;;;;;1.80;1.70;;;22.50;99.90;;;;;;4971127;28;20704;-94
2021/07/08 11:00:46;;;;;;;2.60;2.40;;;22.60;99.90;;;;;;4973945;28;20625;-95
2021/07/08 11:03:44;;;;;;;2.70;2.03;;;22.50;99.90;;;;;;4978568;28;20680;-95
2021/07/08 11:06:25;;;;;;;2.93;1.70;;;22.30;99.90;;;;;;4982065;28;20650;-95
2021/07/08 11:08:56;;;;;;;1.70;1.60;;;22.20;99.90;;;;;;4974110;28;20740;-94
2021/07/08 11:12:17;;;;;;;5.43;2.33;;;22.20;99.90;;;;;;4973623;28;20618;-94
2021/07/08 11:14:45;;;;;;;7.00;2.07;;;22.20;99.90;;;;;;4973771;28;20640;-95
2021/07/08 11:17:21;;;;;;;1.57;1.47;;;22.30;99.90;;;;;;4971675;28;20731;-94
2021/07/08 11:19:52;;;;;;;2.37;1.80;;;22.30;99.90;;;;;;4973263;28;20891;-94
2021/07/08 11:22:35;;;;;;;1.63;1.53;;;22.40;99.90;;;;;;4973807;28;20664;-94
2021/07/08 11:25:04;;;;;;;2.37;1.80;;;22.40;99.90;;;;;;4973477;28;20697;-94
2021/07/08 11:27:34;;;;;;;1.93;1.83;;;22.40;99.90;;;;;;4972525;28;20648;-95
2021/07/08 11:30:20;;;;;;;2.87;2.00;;;22.50;99.90;;;;;;4972278;28;20630;-95
2021/07/08 11:32:49;;;;;;;3.73;2.17;;;22.60;99.90;;;;;;4950607;28;20685;-95
2021/07/08 11:35:20;;;;;;;3.83;1.63;;;22.60;99.90;;;;;;4968243;28;20629;-95
2021/07/08 11:37:54;;;;;;;1.80;1.70;;;22.80;99.90;;;;;;4967674;28;20708;-94
2021/07/08 11:40:24;;;;;;;2.00;1.90;;;22.70;99.90;;;;;;4973775;28;20637;-94
2021/07/08 11:42:52;;;;;;;2.00;1.90;;;22.70;99.90;;;;;;4973536;28;21285;-94
2021/07/08 11:45:23;;;;;;;3.53;2.30;;;22.60;99.90;;;;;;4973248;28;20676;-94
2021/07/08 11:47:53;;;;;;;3.77;2.53;;;22.80;99.90;;;;;;4977300;28;20741;-94
2021/07/08 11:50:27;;;;;;;3.60;2.00;;;22.60;99.90;;;;;;4966641;28;21265;-93
2021/07/08 11:53:16;;;;;;;2.83;2.00;;;22.70;99.90;;;;;;4972481;28;20755;-94
2021/07/08 11:55:48;;;;;;;2.83;2.00;;;22.70;99.90;;;;;;4971637;28;20637;-94
2021/07/08 11:58:22;;;;;;;2.53;2.33;;;22.70;99.90;;;;;;4966283;28;20649;-94
2021/07/08 12:00:51;;;;;;;4.73;2.30;;;22.80;99.90;;;;;;4965544;28;20645;-95
2021/07/08 12:03:32;;;;;;;2.53;2.10;;;22.80;99.90;;;;;;4973053;28;21173;-94
2021/07/08 12:06:01;;;;;;;3.10;2.57;;;23.00;99.90;;;;;;4970291;28;20617;-95
2021/07/08 12:08:31;;;;;;;2.50;2.30;;;23.10;99.90;;;;;;4974899;28;20661;-94
2021/07/08 12:11:09;;;;;;;2.67;1.70;;;23.30;99.90;;;;;;4981833;28;20622;-93
2021/07/08 12:13:50;;;;;;;2.60;2.40;;;23.30;99.90;;;;;;4989026;28;20673;-95
2021/07/08 12:16:21;;;;;;;2.60;1.90;;;23.20;99.90;;;;;;4977728;28;20644;-94
2021/07/08 12:18:50;;;;;;;1.70;1.50;;;23.20;99.90;;;;;;4968979;28;20629;-94
2021/07/08 12:21:20;;;;;;;1.87;1.63;;;23.20;99.90;;;;;;4972195;28;20642;-94
2021/07/08 12:23:47;;;;;;;2.17;1.97;;;23.20;99.90;;;;;;4970430;28;20728;-96
2021/07/08 12:26:27;;;;;;;1.93;1.70;;;23.50;99.90;;;;;;4976925;28;20634;-94
2021/07/08 12:29:16;;;;;;;3.10;2.23;;;23.40;99.90;;;;;;4977538;28;20656;-95
2021/07/08 12:31:51;;;;;;;1.90;1.80;;;23.30;99.90;;;;;;4992878;28;20652;-94
2021/07/08 12:34:20;;;;;;;2.73;2.20;;;23.40;99.90;;;;;;4987981;28;20598;-93
2021/07/08 12:36:47;;;;;;;5.03;1.93;;;23.40;99.90;;;;;;4975254;28;20668;-94
2021/07/08 12:39:24;;;;;;;2.73;1.63;;;23.30;99.90;;;;;;4973966;28;20675;-94
2021/07/08 12:41:52;;;;;;;2.60;2.20;;;23.60;99.90;;;;;;4967854;28;20673;-94
2021/07/08 12:44:22;;;;;;;2.57;2.27;;;23.60;99.90;;;;;;4966243;28;21355;-95
2021/07/08 12:46:56;;;;;;;1.90;1.80;;;23.70;99.90;;;;;;4976612;28;20645;-95
2021/07/08 12:49:23;;;;;;;1.70;1.60;;;23.40;99.90;;;;;;4968790;28;20665;-95
2021/07/08 12:51:51;;;;;;;2.67;2.43;;;23.50;99.90;;;;;;4971144;28;21323;-95
2021/07/08 12:54:20;;;;;;;3.57;2.20;;;23.40;99.90;;;;;;4972081;28;20626;-95
2021/07/08 12:57:05;;;;;;;2.43;1.67;;;22.90;99.90;;;;;;4970893;28;21173;-94
2021/07/08 12:59:34;;;;;;;2.70;1.80;;;22.20;99.90;;;;;;4969758;28;20736;-93
2021/07/08 13:02:03;;;;;;;2.60;2.00;;;21.60;99.90;;;;;;4970837;28;20668;-96
2021/07/08 13:04:32;;;;;;;2.03;1.90;;;21.50;99.90;;;;;;4974770;28;20744;-95
2021/07/08 13:07:03;;;;;;;2.97;1.50;;;21.60;99.90;;;;;;4968834;28;21683;-94
2021/07/08 13:09:30;;;;;;;2.60;2.40;;;21.70;99.90;;;;;;4970637;28;20688;-92
2021/07/08 13:12:16;;;;;;;2.03;1.73;;;21.50;99.90;;;;;;4971486;28;20665;-94
2021/07/08 13:14:43;;;;;;;4.00;2.13;;;21.30;99.90;;;;;;4971888;28;20625;-94
2021/07/08 13:17:13;;;;;;;2.80;2.57;;;21.40;99.90;;;;;;4973939;28;20644;-94
2021/07/08 13:19:44;;;;;;;2.73;2.03;;;21.40;99.90;;;;;;4969728;28;20657;-93
2021/07/08 13:22:16;;;;;;;3.83;3.00;;;21.50;99.90;;;;;;4963427;28;20772;-93
2021/07/08 13:24:53;;;;;;;4.20;3.17;;;21.50;99.90;;;;;;4975976;28;20618;-93
2021/07/08 13:27:34;;;;;;;4.07;3.67;;;21.50;99.90;;;;;;4970528;28;20665;-93
2021/07/08 13:30:28;;;;;;;3.17;2.33;;;21.70;99.90;;;;;;4966730;28;20732;-94
2021/07/08 13:33:09;;;;;;;2.20;1.83;;;21.70;99.90;;;;;;4975191;28;20677;-93
2021/07/08 13:35:49;;;;;;;2.30;2.00;;;21.80;99.90;;;;;;4976394;28;20749;-95
2021/07/08 13:38:22;;;;;;;2.33;1.77;;;21.70;99.90;;;;;;4974434;28;20664;-93
2021/07/08 13:41:07;;;;;;;1.60;1.40;;;22.10;99.90;;;;;;4970579;28;20680;-93
2021/07/08 13:43:40;;;;;;;1.90;1.63;;;22.20;99.90;;;;;;4972199;28;21515;-95
2021/07/08 13:46:19;;;;;;;1.37;1.27;;;22.50;99.90;;;;;;4970972;28;20745;-94
2021/07/08 13:48:51;;;;;;;4.00;1.60;;;22.60;99.90;;;;;;4973297;28;20663;-93